sensor_id;sensor_type;location;lat;lon;timestamp;P1;durP1;ratioP1;P2;durP2;ratioP2
3443;SDS011;1736;52.068;6.968;2022-09-23T00:01:45;17.20;;;9.30;;
3443;SDS011;1736;52.068;6.968;2022-09-23T00:04:11;11.50;;;8.40;;
3443;SDS011;1736;52.068;6.968;2022-09-23T00:06:38;9.37;;;6.70;;
3443;SDS011;1736;52.068;6.968;2022-09-23T00:09:05;9.90;;;6.30;;
3443;SDS011;1736;52.068;6.968;2022-09-23T00:11:31;8.70;;;6.27;;
3443;SDS011;1736;52.068;6.968;2022-09-23T00:13:58;8.17;;;6.57;;
3443;SDS011;1736;52.068;6.968;2022-09-23T00:16:26;12.07;;;6.63;;
3443;SDS011;1736;52.068;6.968;2022-09-23T00:19:04;6.50;;;5.83;;
3443;SDS011;1736;52.068;6.968;2022-09-23T00:21:31;9.23;;;6.47;;
3443;SDS011;1736;52.068;6.968;2022-09-23T00:23:57;7.27;;;5.93;;
3443;SDS011;1736;52.068;6.968;2022-09-23T00:26:24;8.33;;;6.03;;
3443;SDS011;1736;52.068;6.968;2022-09-23T00:28:51;6.70;;;5.83;;
3443;SDS011;1736;52.068;6.968;2022-09-23T00:31:18;11.77;;;5.50;;
3443;SDS011;1736;52.068;6.968;2022-09-23T00:33:46;8.20;;;5.70;;
3443;SDS011;1736;52.068;6.968;2022-09-23T00:36:14;6.67;;;5.90;;
3443;SDS011;1736;52.068;6.968;2022-09-23T00:38:41;6.20;;;5.40;;
3443;SDS011;1736;52.068;6.968;2022-09-23T00:41:08;7.90;;;6.20;;
3443;SDS011;1736;52.068;6.968;2022-09-23T00:43:36;8.17;;;6.77;;
3443;SDS011;1736;52.068;6.968;2022-09-23T00:46:07;9.50;;;6.17;;
3443;SDS011;1736;52.068;6.968;2022-09-23T00:55:37;7.90;;;5.57;;
3443;SDS011;1736;52.068;6.968;2022-09-23T00:58:08;7.73;;;6.23;;
3443;SDS011;1736;52.068;6.968;2022-09-23T01:00:37;9.50;;;5.73;;
3443;SDS011;1736;52.068;6.968;2022-09-23T01:03:04;7.00;;;5.20;;
3443;SDS011;1736;52.068;6.968;2022-09-23T01:05:32;6.60;;;5.80;;
3443;SDS011;1736;52.068;6.968;2022-09-23T01:08:00;6.33;;;4.73;;
3443;SDS011;1736;52.068;6.968;2022-09-23T01:10:28;6.40;;;5.03;;
3443;SDS011;1736;52.068;6.968;2022-09-23T01:13:10;5.77;;;4.87;;
3443;SDS011;1736;52.068;6.968;2022-09-23T01:15:47;7.03;;;4.77;;
3443;SDS011;1736;52.068;6.968;2022-09-23T01:18:21;6.63;;;5.03;;
3443;SDS011;1736;52.068;6.968;2022-09-23T01:20:59;5.17;;;4.67;;
3443;SDS011;1736;52.068;6.968;2022-09-23T01:23:39;8.00;;;4.80;;
3443;SDS011;1736;52.068;6.968;2022-09-23T01:29:38;11.07;;;4.60;;
3443;SDS011;1736;52.068;6.968;2022-09-23T01:32:28;5.17;;;4.67;;
3443;SDS011;1736;52.068;6.968;2022-09-23T01:35:03;8.33;;;4.90;;
3443;SDS011;1736;52.068;6.968;2022-09-23T01:37:37;5.10;;;4.60;;
3443;SDS011;1736;52.068;6.968;2022-09-23T01:40:09;5.77;;;4.70;;
3443;SDS011;1736;52.068;6.968;2022-09-23T01:42:44;7.50;;;5.30;;
3443;SDS011;1736;52.068;6.968;2022-09-23T01:45:18;5.73;;;4.80;;
3443;SDS011;1736;52.068;6.968;2022-09-23T01:47:52;7.30;;;4.93;;
3443;SDS011;1736;52.068;6.968;2022-09-23T01:50:24;6.37;;;4.90;;
3443;SDS011;1736;52.068;6.968;2022-09-23T01:53:13;9.20;;;5.10;;
3443;SDS011;1736;52.068;6.968;2022-09-23T01:55:44;7.20;;;5.00;;
3443;SDS011;1736;52.068;6.968;2022-09-23T01:58:17;5.50;;;4.70;;
3443;SDS011;1736;52.068;6.968;2022-09-23T02:00:51;7.43;;;5.40;;
3443;SDS011;1736;52.068;6.968;2022-09-23T02:03:25;6.00;;;4.70;;
3443;SDS011;1736;52.068;6.968;2022-09-23T02:05:57;12.50;;;5.40;;
3443;SDS011;1736;52.068;6.968;2022-09-23T02:08:28;5.60;;;5.10;;
3443;SDS011;1736;52.068;6.968;2022-09-23T02:10:59;6.40;;;4.70;;
3443;SDS011;1736;52.068;6.968;2022-09-23T02:13:31;6.80;;;4.83;;
3443;SDS011;1736;52.068;6.968;2022-09-23T02:16:05;6.40;;;5.47;;
3443;SDS011;1736;52.068;6.968;2022-09-23T02:18:40;8.17;;;5.37;;
3443;SDS011;1736;52.068;6.968;2022-09-23T02:21:10;20.00;;;5.70;;
3443;SDS011;1736;52.068;6.968;2022-09-23T02:23:40;8.00;;;5.03;;
3443;SDS011;1736;52.068;6.968;2022-09-23T02:26:11;5.77;;;5.27;;
3443;SDS011;1736;52.068;6.968;2022-09-23T02:28:45;5.97;;;5.27;;
3443;SDS011;1736;52.068;6.968;2022-09-23T02:31:19;9.07;;;5.40;;
3443;SDS011;1736;52.068;6.968;2022-09-23T02:33:53;8.50;;;5.70;;
3443;SDS011;1736;52.068;6.968;2022-09-23T02:36:25;5.67;;;4.90;;
3443;SDS011;1736;52.068;6.968;2022-09-23T02:38:56;12.43;;;5.80;;
3443;SDS011;1736;52.068;6.968;2022-09-23T02:41:27;7.10;;;5.43;;
3443;SDS011;1736;52.068;6.968;2022-09-23T02:43:59;6.43;;;5.27;;
3443;SDS011;1736;52.068;6.968;2022-09-23T02:46:30;6.03;;;5.20;;
3443;SDS011;1736;52.068;6.968;2022-09-23T02:48:59;6.63;;;4.93;;
3443;SDS011;1736;52.068;6.968;2022-09-23T02:51:31;8.40;;;5.40;;
3443;SDS011;1736;52.068;6.968;2022-09-23T02:54:02;7.07;;;5.33;;
3443;SDS011;1736;52.068;6.968;2022-09-23T02:56:31;5.60;;;5.10;;
3443;SDS011;1736;52.068;6.968;2022-09-23T02:58:58;7.87;;;4.93;;
3443;SDS011;1736;52.068;6.968;2022-09-23T03:01:28;5.77;;;5.13;;
3443;SDS011;1736;52.068;6.968;2022-09-23T03:04:14;5.67;;;5.00;;
3443;SDS011;1736;52.068;6.968;2022-09-23T03:06:50;6.53;;;5.53;;
3443;SDS011;1736;52.068;6.968;2022-09-23T03:09:26;8.93;;;6.03;;
3443;SDS011;1736;52.068;6.968;2022-09-23T03:11:58;6.40;;;5.13;;
3443;SDS011;1736;52.068;6.968;2022-09-23T03:14:36;9.30;;;5.60;;
3443;SDS011;1736;52.068;6.968;2022-09-23T03:17:13;6.33;;;5.03;;
3443;SDS011;1736;52.068;6.968;2022-09-23T03:19:48;5.70;;;4.90;;
3443;SDS011;1736;52.068;6.968;2022-09-23T03:22:20;8.17;;;5.20;;
3443;SDS011;1736;52.068;6.968;2022-09-23T03:24:51;6.30;;;5.30;;
3443;SDS011;1736;52.068;6.968;2022-09-23T03:27:24;7.67;;;5.80;;
3443;SDS011;1736;52.068;6.968;2022-09-23T03:29:54;7.80;;;5.53;;
3443;SDS011;1736;52.068;6.968;2022-09-23T03:32:22;9.27;;;5.73;;
3443;SDS011;1736;52.068;6.968;2022-09-23T03:34:56;6.87;;;5.27;;
3443;SDS011;1736;52.068;6.968;2022-09-23T03:37:25;7.10;;;5.47;;
3443;SDS011;1736;52.068;6.968;2022-09-23T03:39:58;7.37;;;5.70;;
3443;SDS011;1736;52.068;6.968;2022-09-23T03:42:29;10.47;;;5.50;;
3443;SDS011;1736;52.068;6.968;2022-09-23T03:44:57;8.03;;;5.40;;
3443;SDS011;1736;52.068;6.968;2022-09-23T03:47:31;7.63;;;5.23;;
3443;SDS011;1736;52.068;6.968;2022-09-23T03:49:59;8.40;;;5.90;;
3443;SDS011;1736;52.068;6.968;2022-09-23T03:52:26;6.43;;;5.70;;
3443;SDS011;1736;52.068;6.968;2022-09-23T03:54:53;9.03;;;5.80;;
3443;SDS011;1736;52.068;6.968;2022-09-23T03:57:20;9.63;;;6.07;;
3443;SDS011;1736;52.068;6.968;2022-09-23T03:59:47;13.37;;;6.63;;
3443;SDS011;1736;52.068;6.968;2022-09-23T04:02:14;6.87;;;5.60;;
3443;SDS011;1736;52.068;6.968;2022-09-23T04:04:41;8.63;;;5.60;;
3443;SDS011;1736;52.068;6.968;2022-09-23T04:07:10;6.73;;;5.30;;
3443;SDS011;1736;52.068;6.968;2022-09-23T04:09:38;7.77;;;5.83;;
3443;SDS011;1736;52.068;6.968;2022-09-23T04:12:05;7.87;;;5.70;;
3443;SDS011;1736;52.068;6.968;2022-09-23T04:14:32;11.10;;;5.70;;
3443;SDS011;1736;52.068;6.968;2022-09-23T04:16:59;6.40;;;5.17;;
3443;SDS011;1736;52.068;6.968;2022-09-23T04:19:26;8.97;;;6.30;;
3443;SDS011;1736;52.068;6.968;2022-09-23T04:21:52;6.67;;;5.83;;
3443;SDS011;1736;52.068;6.968;2022-09-23T04:24:20;7.10;;;5.83;;
3443;SDS011;1736;52.068;6.968;2022-09-23T04:26:48;14.63;;;6.13;;
3443;SDS011;1736;52.068;6.968;2022-09-23T04:29:16;8.30;;;5.93;;
3443;SDS011;1736;52.068;6.968;2022-09-23T04:31:42;8.20;;;6.43;;
3443;SDS011;1736;52.068;6.968;2022-09-23T04:34:09;8.73;;;6.30;;
3443;SDS011;1736;52.068;6.968;2022-09-23T04:36:36;8.13;;;6.90;;
3443;SDS011;1736;52.068;6.968;2022-09-23T04:39:03;10.20;;;6.60;;
3443;SDS011;1736;52.068;6.968;2022-09-23T04:41:32;7.07;;;6.17;;
3443;SDS011;1736;52.068;6.968;2022-09-23T04:43:58;7.93;;;6.00;;
3443;SDS011;1736;52.068;6.968;2022-09-23T04:46:25;8.50;;;6.60;;
3443;SDS011;1736;52.068;6.968;2022-09-23T04:48:52;8.90;;;6.60;;
3443;SDS011;1736;52.068;6.968;2022-09-23T04:51:20;9.03;;;6.70;;
3443;SDS011;1736;52.068;6.968;2022-09-23T04:53:49;12.40;;;6.37;;
3443;SDS011;1736;52.068;6.968;2022-09-23T04:56:17;11.20;;;6.50;;
3443;SDS011;1736;52.068;6.968;2022-09-23T04:58:47;9.17;;;6.40;;
3443;SDS011;1736;52.068;6.968;2022-09-23T05:01:14;9.43;;;6.43;;
3443;SDS011;1736;52.068;6.968;2022-09-23T05:03:42;8.03;;;6.13;;
3443;SDS011;1736;52.068;6.968;2022-09-23T05:06:10;10.33;;;6.20;;
3443;SDS011;1736;52.068;6.968;2022-09-23T05:08:38;7.50;;;6.23;;
3443;SDS011;1736;52.068;6.968;2022-09-23T05:11:05;8.10;;;6.00;;
3443;SDS011;1736;52.068;6.968;2022-09-23T05:13:33;8.83;;;6.57;;
3443;SDS011;1736;52.068;6.968;2022-09-23T05:16:02;11.70;;;7.20;;
3443;SDS011;1736;52.068;6.968;2022-09-23T05:18:30;10.90;;;7.63;;
3443;SDS011;1736;52.068;6.968;2022-09-23T05:20:57;9.60;;;7.33;;
3443;SDS011;1736;52.068;6.968;2022-09-23T05:23:24;11.93;;;7.90;;
3443;SDS011;1736;52.068;6.968;2022-09-23T05:25:54;12.07;;;8.07;;
3443;SDS011;1736;52.068;6.968;2022-09-23T05:28:23;14.73;;;7.50;;
3443;SDS011;1736;52.068;6.968;2022-09-23T05:30:50;10.60;;;7.07;;
3443;SDS011;1736;52.068;6.968;2022-09-23T05:33:18;9.07;;;6.73;;
3443;SDS011;1736;52.068;6.968;2022-09-23T05:35:45;11.87;;;7.20;;
3443;SDS011;1736;52.068;6.968;2022-09-23T05:38:12;11.80;;;7.77;;
3443;SDS011;1736;52.068;6.968;2022-09-23T05:40:40;9.93;;;7.03;;
3443;SDS011;1736;52.068;6.968;2022-09-23T05:43:07;21.30;;;7.40;;
3443;SDS011;1736;52.068;6.968;2022-09-23T05:45:34;12.67;;;8.10;;
3443;SDS011;1736;52.068;6.968;2022-09-23T05:48:00;11.93;;;7.60;;
3443;SDS011;1736;52.068;6.968;2022-09-23T05:50:28;9.40;;;7.07;;
3443;SDS011;1736;52.068;6.968;2022-09-23T05:52:55;11.80;;;7.73;;
3443;SDS011;1736;52.068;6.968;2022-09-23T05:55:21;15.23;;;8.77;;
3443;SDS011;1736;52.068;6.968;2022-09-23T05:57:48;11.53;;;7.97;;
3443;SDS011;1736;52.068;6.968;2022-09-23T06:00:15;14.00;;;7.93;;
3443;SDS011;1736;52.068;6.968;2022-09-23T06:02:41;13.20;;;8.17;;
3443;SDS011;1736;52.068;6.968;2022-09-23T06:05:08;13.00;;;8.40;;
3443;SDS011;1736;52.068;6.968;2022-09-23T06:07:37;13.03;;;8.10;;
3443;SDS011;1736;52.068;6.968;2022-09-23T06:10:04;14.17;;;8.03;;
3443;SDS011;1736;52.068;6.968;2022-09-23T06:12:31;12.20;;;7.70;;
3443;SDS011;1736;52.068;6.968;2022-09-23T06:14:58;13.70;;;7.93;;
3443;SDS011;1736;52.068;6.968;2022-09-23T06:17:25;8.90;;;7.00;;
3443;SDS011;1736;52.068;6.968;2022-09-23T06:19:58;8.60;;;6.30;;
3443;SDS011;1736;52.068;6.968;2022-09-23T06:22:24;8.07;;;7.00;;
3443;SDS011;1736;52.068;6.968;2022-09-23T06:24:52;12.33;;;6.07;;
3443;SDS011;1736;52.068;6.968;2022-09-23T06:27:18;8.70;;;6.30;;
3443;SDS011;1736;52.068;6.968;2022-09-23T06:29:45;9.60;;;6.63;;
3443;SDS011;1736;52.068;6.968;2022-09-23T06:32:11;7.63;;;5.73;;
3443;SDS011;1736;52.068;6.968;2022-09-23T06:34:38;8.93;;;6.10;;
3443;SDS011;1736;52.068;6.968;2022-09-23T06:37:06;8.00;;;5.80;;
3443;SDS011;1736;52.068;6.968;2022-09-23T06:39:32;8.83;;;5.97;;
3443;SDS011;1736;52.068;6.968;2022-09-23T06:42:00;6.47;;;5.43;;
3443;SDS011;1736;52.068;6.968;2022-09-23T06:44:27;7.40;;;5.63;;
3443;SDS011;1736;52.068;6.968;2022-09-23T06:46:53;7.93;;;5.33;;
3443;SDS011;1736;52.068;6.968;2022-09-23T06:49:20;6.50;;;5.23;;
3443;SDS011;1736;52.068;6.968;2022-09-23T06:51:46;7.77;;;5.00;;
3443;SDS011;1736;52.068;6.968;2022-09-23T06:54:13;9.20;;;4.70;;
3443;SDS011;1736;52.068;6.968;2022-09-23T06:56:43;6.03;;;4.93;;
3443;SDS011;1736;52.068;6.968;2022-09-23T06:59:12;5.87;;;4.77;;
3443;SDS011;1736;52.068;6.968;2022-09-23T07:01:41;7.80;;;4.80;;
3443;SDS011;1736;52.068;6.968;2022-09-23T07:04:09;7.83;;;4.87;;
3443;SDS011;1736;52.068;6.968;2022-09-23T07:06:35;5.43;;;4.30;;
3443;SDS011;1736;52.068;6.968;2022-09-23T07:09:02;5.67;;;4.60;;
3443;SDS011;1736;52.068;6.968;2022-09-23T07:11:29;5.20;;;4.57;;
3443;SDS011;1736;52.068;6.968;2022-09-23T07:13:56;5.87;;;4.43;;
3443;SDS011;1736;52.068;6.968;2022-09-23T07:16:24;6.30;;;4.50;;
3443;SDS011;1736;52.068;6.968;2022-09-23T07:18:51;6.80;;;4.50;;
3443;SDS011;1736;52.068;6.968;2022-09-23T07:21:17;5.10;;;4.40;;
3443;SDS011;1736;52.068;6.968;2022-09-23T07:23:45;6.03;;;4.30;;
3443;SDS011;1736;52.068;6.968;2022-09-23T07:26:12;7.83;;;5.10;;
3443;SDS011;1736;52.068;6.968;2022-09-23T07:28:40;8.47;;;5.00;;
3443;SDS011;1736;52.068;6.968;2022-09-23T07:31:08;8.60;;;4.70;;
3443;SDS011;1736;52.068;6.968;2022-09-23T07:33:38;9.37;;;4.70;;
3443;SDS011;1736;52.068;6.968;2022-09-23T07:36:08;5.70;;;5.07;;
3443;SDS011;1736;52.068;6.968;2022-09-23T07:38:36;7.00;;;4.50;;
3443;SDS011;1736;52.068;6.968;2022-09-23T07:41:05;6.40;;;4.67;;
3443;SDS011;1736;52.068;6.968;2022-09-23T07:43:34;4.63;;;4.23;;
3443;SDS011;1736;52.068;6.968;2022-09-23T07:46:03;12.70;;;4.80;;
3443;SDS011;1736;52.068;6.968;2022-09-23T07:48:32;8.90;;;4.90;;
3443;SDS011;1736;52.068;6.968;2022-09-23T07:51:04;6.90;;;4.80;;
3443;SDS011;1736;52.068;6.968;2022-09-23T07:53:31;5.30;;;4.80;;
3443;SDS011;1736;52.068;6.968;2022-09-23T07:55:58;4.77;;;4.10;;
3443;SDS011;1736;52.068;6.968;2022-09-23T07:58:24;5.63;;;4.43;;
3443;SDS011;1736;52.068;6.968;2022-09-23T08:00:51;5.50;;;4.90;;
3443;SDS011;1736;52.068;6.968;2022-09-23T08:03:18;10.70;;;4.37;;
3443;SDS011;1736;52.068;6.968;2022-09-23T08:05:45;6.17;;;4.40;;
3443;SDS011;1736;52.068;6.968;2022-09-23T08:08:12;9.20;;;4.60;;
3443;SDS011;1736;52.068;6.968;2022-09-23T08:10:39;6.73;;;4.83;;
3443;SDS011;1736;52.068;6.968;2022-09-23T08:13:06;11.43;;;5.00;;
3443;SDS011;1736;52.068;6.968;2022-09-23T08:15:33;10.00;;;4.90;;
3443;SDS011;1736;52.068;6.968;2022-09-23T08:18:00;6.63;;;4.23;;
3443;SDS011;1736;52.068;6.968;2022-09-23T08:20:27;8.47;;;5.10;;
3443;SDS011;1736;52.068;6.968;2022-09-23T08:23:13;8.17;;;3.77;;
3443;SDS011;1736;52.068;6.968;2022-09-23T08:25:41;7.37;;;4.93;;
3443;SDS011;1736;52.068;6.968;2022-09-23T08:28:10;9.70;;;4.77;;
3443;SDS011;1736;52.068;6.968;2022-09-23T08:30:40;6.77;;;4.30;;
3443;SDS011;1736;52.068;6.968;2022-09-23T08:33:07;6.70;;;4.37;;
3443;SDS011;1736;52.068;6.968;2022-09-23T08:35:34;7.90;;;4.57;;
3443;SDS011;1736;52.068;6.968;2022-09-23T08:38:01;7.77;;;4.33;;
3443;SDS011;1736;52.068;6.968;2022-09-23T08:40:29;8.00;;;4.90;;
3443;SDS011;1736;52.068;6.968;2022-09-23T08:42:58;5.53;;;4.23;;
3443;SDS011;1736;52.068;6.968;2022-09-23T08:45:25;4.60;;;4.00;;
3443;SDS011;1736;52.068;6.968;2022-09-23T08:47:54;5.03;;;3.70;;
3443;SDS011;1736;52.068;6.968;2022-09-23T08:50:27;4.40;;;3.97;;
3443;SDS011;1736;52.068;6.968;2022-09-23T08:52:58;5.83;;;4.10;;
3443;SDS011;1736;52.068;6.968;2022-09-23T08:55:31;10.93;;;4.07;;
3443;SDS011;1736;52.068;6.968;2022-09-23T08:58:07;4.60;;;4.13;;
3443;SDS011;1736;52.068;6.968;2022-09-23T09:00:52;6.20;;;3.80;;
3443;SDS011;1736;52.068;6.968;2022-09-23T09:03:28;5.17;;;3.80;;
3443;SDS011;1736;52.068;6.968;2022-09-23T09:05:59;7.50;;;4.03;;
3443;SDS011;1736;52.068;6.968;2022-09-23T09:08:27;7.20;;;3.57;;
3443;SDS011;1736;52.068;6.968;2022-09-23T09:10:59;5.40;;;3.80;;
3443;SDS011;1736;52.068;6.968;2022-09-23T09:13:28;5.53;;;3.63;;
3443;SDS011;1736;52.068;6.968;2022-09-23T09:16:08;6.40;;;3.70;;
3443;SDS011;1736;52.068;6.968;2022-09-23T09:18:44;5.20;;;4.43;;
3443;SDS011;1736;52.068;6.968;2022-09-23T09:21:17;5.10;;;3.40;;
3443;SDS011;1736;52.068;6.968;2022-09-23T09:23:49;4.30;;;3.83;;
3443;SDS011;1736;52.068;6.968;2022-09-23T09:26:28;4.97;;;3.83;;
3443;SDS011;1736;52.068;6.968;2022-09-23T09:28:59;5.83;;;3.70;;
3443;SDS011;1736;52.068;6.968;2022-09-23T09:31:30;7.83;;;3.47;;
3443;SDS011;1736;52.068;6.968;2022-09-23T09:33:59;6.60;;;3.80;;
3443;SDS011;1736;52.068;6.968;2022-09-23T09:36:35;12.13;;;4.20;;
3443;SDS011;1736;52.068;6.968;2022-09-23T09:39:05;4.17;;;3.50;;
3443;SDS011;1736;52.068;6.968;2022-09-23T09:41:37;7.50;;;3.80;;
3443;SDS011;1736;52.068;6.968;2022-09-23T09:44:08;5.23;;;3.50;;
3443;SDS011;1736;52.068;6.968;2022-09-23T09:46:52;6.17;;;4.40;;
3443;SDS011;1736;52.068;6.968;2022-09-23T09:49:39;8.90;;;3.83;;
3443;SDS011;1736;52.068;6.968;2022-09-23T09:52:11;8.87;;;3.97;;
3443;SDS011;1736;52.068;6.968;2022-09-23T09:54:50;5.57;;;3.60;;
3443;SDS011;1736;52.068;6.968;2022-09-23T09:57:28;10.57;;;4.13;;
3443;SDS011;1736;52.068;6.968;2022-09-23T09:59:58;6.27;;;4.20;;
3443;SDS011;1736;52.068;6.968;2022-09-23T10:02:44;6.30;;;4.20;;
3443;SDS011;1736;52.068;6.968;2022-09-23T10:05:22;8.90;;;3.97;;
3443;SDS011;1736;52.068;6.968;2022-09-23T10:07:51;4.40;;;3.63;;
3443;SDS011;1736;52.068;6.968;2022-09-23T10:10:18;8.53;;;5.97;;
3443;SDS011;1736;52.068;6.968;2022-09-23T10:12:49;9.37;;;6.23;;
3443;SDS011;1736;52.068;6.968;2022-09-23T10:15:25;6.60;;;4.73;;
3443;SDS011;1736;52.068;6.968;2022-09-23T10:17:54;5.83;;;3.60;;
3443;SDS011;1736;52.068;6.968;2022-09-23T10:20:25;4.30;;;3.40;;
3443;SDS011;1736;52.068;6.968;2022-09-23T10:23:04;7.17;;;3.57;;
3443;SDS011;1736;52.068;6.968;2022-09-23T10:25:32;6.53;;;4.03;;
3443;SDS011;1736;52.068;6.968;2022-09-23T10:28:03;5.93;;;4.03;;
3443;SDS011;1736;52.068;6.968;2022-09-23T10:31:04;4.77;;;3.63;;
3443;SDS011;1736;52.068;6.968;2022-09-23T10:33:32;6.00;;;3.97;;
3443;SDS011;1736;52.068;6.968;2022-09-23T10:36:00;5.60;;;3.93;;
3443;SDS011;1736;52.068;6.968;2022-09-23T10:38:26;7.40;;;3.97;;
3443;SDS011;1736;52.068;6.968;2022-09-23T10:40:53;6.47;;;3.50;;
3443;SDS011;1736;52.068;6.968;2022-09-23T10:43:49;6.43;;;3.73;;
3443;SDS011;1736;52.068;6.968;2022-09-23T10:46:45;8.20;;;4.30;;
3443;SDS011;1736;52.068;6.968;2022-09-23T10:49:39;5.63;;;3.73;;
3443;SDS011;1736;52.068;6.968;2022-09-23T10:52:26;4.90;;;4.07;;
3443;SDS011;1736;52.068;6.968;2022-09-23T10:55:06;6.60;;;3.93;;
3443;SDS011;1736;52.068;6.968;2022-09-23T10:57:47;5.33;;;3.93;;
3443;SDS011;1736;52.068;6.968;2022-09-23T11:00:31;14.70;;;5.00;;
3443;SDS011;1736;52.068;6.968;2022-09-23T11:06:23;8.63;;;4.30;;
3443;SDS011;1736;52.068;6.968;2022-09-23T11:08:59;6.77;;;4.20;;
3443;SDS011;1736;52.068;6.968;2022-09-23T11:11:43;5.90;;;4.40;;
3443;SDS011;1736;52.068;6.968;2022-09-23T11:14:26;4.07;;;3.70;;
3443;SDS011;1736;52.068;6.968;2022-09-23T11:17:08;6.97;;;4.03;;
3443;SDS011;1736;52.068;6.968;2022-09-23T11:22:55;9.50;;;5.73;;
3443;SDS011;1736;52.068;6.968;2022-09-23T11:25:52;7.33;;;4.30;;
3443;SDS011;1736;52.068;6.968;2022-09-23T11:31:36;7.40;;;4.23;;
3443;SDS011;1736;52.068;6.968;2022-09-23T11:34:18;6.77;;;3.90;;
3443;SDS011;1736;52.068;6.968;2022-09-23T11:37:00;5.37;;;4.60;;
3443;SDS011;1736;52.068;6.968;2022-09-23T11:39:31;7.73;;;4.03;;
3443;SDS011;1736;52.068;6.968;2022-09-23T11:42:02;8.50;;;4.40;;
3443;SDS011;1736;52.068;6.968;2022-09-23T11:44:35;9.63;;;4.90;;
3443;SDS011;1736;52.068;6.968;2022-09-23T11:47:07;7.30;;;4.50;;
3443;SDS011;1736;52.068;6.968;2022-09-23T11:49:41;8.57;;;4.70;;
3443;SDS011;1736;52.068;6.968;2022-09-23T11:52:15;6.27;;;4.37;;
3443;SDS011;1736;52.068;6.968;2022-09-23T11:54:47;9.00;;;4.03;;
3443;SDS011;1736;52.068;6.968;2022-09-23T11:57:21;5.03;;;3.63;;
3443;SDS011;1736;52.068;6.968;2022-09-23T11:59:53;9.40;;;4.47;;
3443;SDS011;1736;52.068;6.968;2022-09-23T12:02:26;4.87;;;4.00;;
3443;SDS011;1736;52.068;6.968;2022-09-23T12:05:00;6.40;;;3.93;;
3443;SDS011;1736;52.068;6.968;2022-09-23T12:07:41;5.97;;;3.87;;
3443;SDS011;1736;52.068;6.968;2022-09-23T12:10:11;4.90;;;3.93;;
3443;SDS011;1736;52.068;6.968;2022-09-23T12:12:42;6.17;;;3.90;;
3443;SDS011;1736;52.068;6.968;2022-09-23T12:15:20;4.43;;;3.70;;
3443;SDS011;1736;52.068;6.968;2022-09-23T12:24:39;7.40;;;3.47;;
3443;SDS011;1736;52.068;6.968;2022-09-23T12:27:14;5.80;;;3.40;;
3443;SDS011;1736;52.068;6.968;2022-09-23T12:29:48;6.50;;;4.10;;
3443;SDS011;1736;52.068;6.968;2022-09-23T12:32:19;10.73;;;4.13;;
3443;SDS011;1736;52.068;6.968;2022-09-23T12:34:46;10.07;;;3.80;;
3443;SDS011;1736;52.068;6.968;2022-09-23T12:37:22;6.23;;;4.20;;
3443;SDS011;1736;52.068;6.968;2022-09-23T12:39:51;10.40;;;4.20;;
3443;SDS011;1736;52.068;6.968;2022-09-23T12:42:19;5.83;;;3.77;;
3443;SDS011;1736;52.068;6.968;2022-09-23T12:44:48;7.73;;;4.00;;
3443;SDS011;1736;52.068;6.968;2022-09-23T12:47:36;4.57;;;3.57;;
3443;SDS011;1736;52.068;6.968;2022-09-23T12:56:19;5.20;;;3.70;;
3443;SDS011;1736;52.068;6.968;2022-09-23T13:01:49;7.10;;;3.80;;
3443;SDS011;1736;52.068;6.968;2022-09-23T13:04:26;7.63;;;4.53;;
3443;SDS011;1736;52.068;6.968;2022-09-23T13:07:13;6.93;;;4.13;;
3443;SDS011;1736;52.068;6.968;2022-09-23T13:09:43;8.57;;;4.40;;
3443;SDS011;1736;52.068;6.968;2022-09-23T13:12:16;11.20;;;3.90;;
3443;SDS011;1736;52.068;6.968;2022-09-23T13:14:45;4.53;;;4.00;;
3443;SDS011;1736;52.068;6.968;2022-09-23T13:17:25;8.47;;;4.90;;
3443;SDS011;1736;52.068;6.968;2022-09-23T13:19:57;7.20;;;4.43;;
3443;SDS011;1736;52.068;6.968;2022-09-23T13:22:39;12.13;;;4.90;;
3443;SDS011;1736;52.068;6.968;2022-09-23T13:25:30;6.90;;;4.60;;
3443;SDS011;1736;52.068;6.968;2022-09-23T13:28:02;4.77;;;3.80;;
3443;SDS011;1736;52.068;6.968;2022-09-23T13:30:37;12.37;;;4.70;;
3443;SDS011;1736;52.068;6.968;2022-09-23T13:33:15;5.97;;;4.13;;
3443;SDS011;1736;52.068;6.968;2022-09-23T13:35:47;4.63;;;3.80;;
3443;SDS011;1736;52.068;6.968;2022-09-23T13:38:17;6.67;;;4.30;;
3443;SDS011;1736;52.068;6.968;2022-09-23T13:40:50;8.33;;;4.43;;
3443;SDS011;1736;52.068;6.968;2022-09-23T13:43:21;6.93;;;4.43;;
3443;SDS011;1736;52.068;6.968;2022-09-23T13:45:50;6.60;;;4.17;;
3443;SDS011;1736;52.068;6.968;2022-09-23T13:48:17;4.83;;;4.30;;
3443;SDS011;1736;52.068;6.968;2022-09-23T13:50:46;7.07;;;3.70;;
3443;SDS011;1736;52.068;6.968;2022-09-23T13:53:16;4.97;;;4.03;;
3443;SDS011;1736;52.068;6.968;2022-09-23T13:55:57;5.67;;;4.97;;
3443;SDS011;1736;52.068;6.968;2022-09-23T13:58:27;6.50;;;4.40;;
3443;SDS011;1736;52.068;6.968;2022-09-23T14:00:54;4.90;;;4.20;;
3443;SDS011;1736;52.068;6.968;2022-09-23T14:03:22;7.60;;;4.80;;
3443;SDS011;1736;52.068;6.968;2022-09-23T14:05:52;7.87;;;4.53;;
3443;SDS011;1736;52.068;6.968;2022-09-23T14:08:20;4.40;;;3.73;;
3443;SDS011;1736;52.068;6.968;2022-09-23T14:10:47;5.40;;;4.10;;
3443;SDS011;1736;52.068;6.968;2022-09-23T14:13:15;4.53;;;4.13;;
3443;SDS011;1736;52.068;6.968;2022-09-23T14:15:45;7.67;;;4.70;;
3443;SDS011;1736;52.068;6.968;2022-09-23T14:18:14;5.53;;;4.37;;
3443;SDS011;1736;52.068;6.968;2022-09-23T14:20:44;9.93;;;5.00;;
3443;SDS011;1736;52.068;6.968;2022-09-23T14:23:12;6.37;;;4.10;;
3443;SDS011;1736;52.068;6.968;2022-09-23T14:25:39;8.97;;;5.33;;
3443;SDS011;1736;52.068;6.968;2022-09-23T14:28:08;12.03;;;5.50;;
3443;SDS011;1736;52.068;6.968;2022-09-23T14:30:39;19.47;;;9.23;;
3443;SDS011;1736;52.068;6.968;2022-09-23T14:33:09;9.73;;;6.10;;
3443;SDS011;1736;52.068;6.968;2022-09-23T14:35:39;8.20;;;4.50;;
3443;SDS011;1736;52.068;6.968;2022-09-23T14:38:08;5.67;;;4.30;;
3443;SDS011;1736;52.068;6.968;2022-09-23T14:40:53;5.20;;;3.83;;
3443;SDS011;1736;52.068;6.968;2022-09-23T14:43:39;4.10;;;3.70;;
3443;SDS011;1736;52.068;6.968;2022-09-23T14:46:15;3.63;;;3.33;;
3443;SDS011;1736;52.068;6.968;2022-09-23T14:48:49;5.30;;;3.50;;
3443;SDS011;1736;52.068;6.968;2022-09-23T14:51:19;6.27;;;4.03;;
3443;SDS011;1736;52.068;6.968;2022-09-23T14:53:45;7.00;;;3.70;;
3443;SDS011;1736;52.068;6.968;2022-09-23T14:56:13;5.20;;;3.30;;
3443;SDS011;1736;52.068;6.968;2022-09-23T14:58:46;7.10;;;3.53;;
3443;SDS011;1736;52.068;6.968;2022-09-23T15:04:14;7.50;;;3.70;;
3443;SDS011;1736;52.068;6.968;2022-09-23T15:06:49;8.93;;;3.97;;
3443;SDS011;1736;52.068;6.968;2022-09-23T15:09:20;5.90;;;4.00;;
3443;SDS011;1736;52.068;6.968;2022-09-23T15:11:50;4.50;;;3.60;;
3443;SDS011;1736;52.068;6.968;2022-09-23T15:14:19;4.00;;;3.60;;
3443;SDS011;1736;52.068;6.968;2022-09-23T15:16:45;6.63;;;3.90;;
3443;SDS011;1736;52.068;6.968;2022-09-23T15:19:15;5.10;;;3.33;;
3443;SDS011;1736;52.068;6.968;2022-09-23T15:21:44;5.17;;;3.40;;
3443;SDS011;1736;52.068;6.968;2022-09-23T15:27:02;5.93;;;3.93;;
3443;SDS011;1736;52.068;6.968;2022-09-23T15:29:35;5.87;;;3.50;;
3443;SDS011;1736;52.068;6.968;2022-09-23T15:32:03;5.33;;;4.00;;
3443;SDS011;1736;52.068;6.968;2022-09-23T15:34:33;6.83;;;3.60;;
3443;SDS011;1736;52.068;6.968;2022-09-23T15:37:01;5.90;;;3.73;;
3443;SDS011;1736;52.068;6.968;2022-09-23T15:39:27;6.30;;;3.37;;
3443;SDS011;1736;52.068;6.968;2022-09-23T15:41:54;7.23;;;3.80;;
3443;SDS011;1736;52.068;6.968;2022-09-23T15:44:21;6.70;;;3.57;;
3443;SDS011;1736;52.068;6.968;2022-09-23T15:46:53;6.60;;;3.73;;
3443;SDS011;1736;52.068;6.968;2022-09-23T15:49:26;6.30;;;4.10;;
3443;SDS011;1736;52.068;6.968;2022-09-23T15:51:58;3.57;;;3.13;;
3443;SDS011;1736;52.068;6.968;2022-09-23T15:54:26;6.57;;;3.57;;
3443;SDS011;1736;52.068;6.968;2022-09-23T15:56:53;3.60;;;3.30;;
3443;SDS011;1736;52.068;6.968;2022-09-23T15:59:20;4.80;;;3.37;;
3443;SDS011;1736;52.068;6.968;2022-09-23T16:01:47;5.30;;;3.37;;
3443;SDS011;1736;52.068;6.968;2022-09-23T16:04:13;3.37;;;3.07;;
3443;SDS011;1736;52.068;6.968;2022-09-23T16:06:40;4.23;;;3.00;;
3443;SDS011;1736;52.068;6.968;2022-09-23T16:09:13;4.63;;;3.10;;
3443;SDS011;1736;52.068;6.968;2022-09-23T16:11:41;6.17;;;3.03;;
3443;SDS011;1736;52.068;6.968;2022-09-23T16:14:10;6.50;;;3.60;;
3443;SDS011;1736;52.068;6.968;2022-09-23T16:16:39;6.80;;;3.37;;
3443;SDS011;1736;52.068;6.968;2022-09-23T16:19:06;3.93;;;3.53;;